createdAt,value
2023-01-08T00:01:58.250Z,0.75
2023-01-08T00:04:25.514Z,0.81
2023-01-08T00:06:53.463Z,0.80
2023-01-08T00:09:20.703Z,0.78
2023-01-08T00:11:49.432Z,0.68
2023-01-08T00:14:16.794Z,0.50
2023-01-08T00:16:44.402Z,0.50
2023-01-08T00:19:14.890Z,0.65
2023-01-08T00:21:42.474Z,0.54
2023-01-08T00:24:09.678Z,0.55
2023-01-08T00:26:37.304Z,0.54
2023-01-08T00:29:04.498Z,0.43
2023-01-08T00:31:32.109Z,0.47
2023-01-08T00:33:59.392Z,0.45
2023-01-08T00:36:27.109Z,0.49
2023-01-08T00:38:54.323Z,0.52
2023-01-08T00:41:21.811Z,0.57
2023-01-08T00:43:48.981Z,0.56
2023-01-08T00:46:16.619Z,0.60
2023-01-08T00:48:43.769Z,0.67
2023-01-08T00:51:11.300Z,0.73
2023-01-08T00:53:38.534Z,0.73
2023-01-08T00:56:09.167Z,0.81
2023-01-08T00:58:36.654Z,0.81
2023-01-08T01:01:11.152Z,0.88
2023-01-08T01:03:38.936Z,0.78
2023-01-08T01:06:07.817Z,0.82
2023-01-08T01:08:35.513Z,0.82
2023-01-08T01:11:23.509Z,0.92
2023-01-08T01:13:51.560Z,0.83
2023-01-08T01:16:19.096Z,0.76
2023-01-08T01:18:46.560Z,0.87
2023-01-08T01:21:22.753Z,0.98
2023-01-08T01:23:50.435Z,0.87
2023-01-08T01:26:19.811Z,0.86
2023-01-08T01:28:48.461Z,0.91
2023-01-08T01:31:16.549Z,0.83
2023-01-08T01:33:44.592Z,0.82
2023-01-08T01:36:14.058Z,0.84
2023-01-08T01:38:45.178Z,0.86
2023-01-08T01:41:39.958Z,0.89
2023-01-08T01:44:35.105Z,0.86
2023-01-08T01:47:09.660Z,0.84
2023-01-08T01:49:38.225Z,0.78
2023-01-08T01:52:08.241Z,0.81
2023-01-08T01:54:36.773Z,0.78
2023-01-08T01:57:05.097Z,0.86
2023-01-08T01:59:32.257Z,0.80
2023-01-08T02:02:00.800Z,0.83
2023-01-08T02:04:28.155Z,0.86
2023-01-08T02:07:10.608Z,0.99
2023-01-08T02:09:48.208Z,1.09
2023-01-08T02:12:31.372Z,0.93
2023-01-08T02:15:17.248Z,0.86
2023-01-08T02:17:53.927Z,0.92
2023-01-08T02:20:31.290Z,0.81
2023-01-08T02:23:07.757Z,0.79
2023-01-08T02:26:02.452Z,0.72
2023-01-08T02:28:32.901Z,0.70
2023-01-08T02:31:00.605Z,0.69
2023-01-08T02:33:29.726Z,0.65
2023-01-08T02:36:34.104Z,0.76
2023-01-08T02:39:01.726Z,0.63
2023-01-08T02:41:52.502Z,0.82
2023-01-08T02:44:27.767Z,0.79
2023-01-08T02:46:59.531Z,0.89
2023-01-08T02:49:33.184Z,0.94
2023-01-08T02:52:04.061Z,0.84
2023-01-08T02:54:34.861Z,0.88
2023-01-08T02:57:15.941Z,0.92
2023-01-08T02:59:48.206Z,0.91
2023-01-08T03:02:16.659Z,0.93
2023-01-08T03:04:53.177Z,1.03
2023-01-08T03:07:20.844Z,1.07
2023-01-08T03:09:48.555Z,0.90
2023-01-08T03:12:20.936Z,1.02
2023-01-08T03:14:56.224Z,1.04
2023-01-08T03:17:30.166Z,1.02
2023-01-08T03:20:06.720Z,1.08
2023-01-08T03:22:38.218Z,1.06
2023-01-08T03:25:07.408Z,1.02
2023-01-08T03:27:40.481Z,1.17
2023-01-08T03:30:10.056Z,1.11
2023-01-08T03:32:41.347Z,1.14
2023-01-08T03:35:12.176Z,1.15
2023-01-08T03:37:44.392Z,1.17
2023-01-08T03:40:17.825Z,1.24
2023-01-08T03:42:45.149Z,1.12
2023-01-08T03:45:12.898Z,1.03
2023-01-08T03:47:42.025Z,1.15
2023-01-08T03:50:17.816Z,1.30
2023-01-08T03:52:45.014Z,1.12
2023-01-08T03:55:12.620Z,1.10
2023-01-08T03:57:39.819Z,1.11
2023-01-08T04:00:08.045Z,1.13
2023-01-08T04:02:35.408Z,1.19
2023-01-08T04:05:03.050Z,1.25
2023-01-08T04:07:30.393Z,1.18
2023-01-08T04:09:57.929Z,1.21
2023-01-08T04:12:25.224Z,1.31
2023-01-08T04:14:52.728Z,1.32
2023-01-08T04:17:19.976Z,1.26
2023-01-08T04:19:47.431Z,1.15
2023-01-08T04:22:14.647Z,1.12
2023-01-08T04:24:42.153Z,1.06
2023-01-08T04:27:09.332Z,1.03
2023-01-08T04:29:39.805Z,1.08
2023-01-08T04:32:07.086Z,1.06
2023-01-08T04:34:34.610Z,1.07
2023-01-08T04:37:03.208Z,1.01
2023-01-08T04:39:30.677Z,0.97
2023-01-08T04:41:57.992Z,0.83
2023-01-08T04:44:25.531Z,0.86
2023-01-08T04:46:52.723Z,0.83
2023-01-08T04:49:20.430Z,0.82
2023-01-08T04:51:47.760Z,0.87
2023-01-08T04:54:15.285Z,0.84
2023-01-08T04:56:42.538Z,0.86
2023-01-08T04:59:10.153Z,0.89
2023-01-08T05:01:37.627Z,0.78
2023-01-08T05:04:06.053Z,0.94
2023-01-08T05:06:33.451Z,0.96
2023-01-08T05:09:01.378Z,0.95
2023-01-08T05:11:28.726Z,0.88
2023-01-08T05:13:56.800Z,0.79
2023-01-08T05:16:24.153Z,0.79
2023-01-08T05:18:51.743Z,0.79
2023-01-08T05:21:19.003Z,0.66
2023-01-08T05:23:50.276Z,0.84
2023-01-08T05:26:19.451Z,0.67
2023-01-08T05:28:47.301Z,0.78
2023-01-08T05:31:15.086Z,0.80
2023-01-08T05:33:42.888Z,0.88
2023-01-08T05:36:12.083Z,0.93
2023-01-08T05:38:40.185Z,0.79
2023-01-08T05:41:07.998Z,0.79
2023-01-08T05:43:36.069Z,0.64
2023-01-08T05:46:04.772Z,0.71
2023-01-08T05:48:34.350Z,0.70
2023-01-08T05:51:02.372Z,0.59
2023-01-08T05:53:32.286Z,0.51
2023-01-08T05:56:07.167Z,0.57
2023-01-08T05:58:36.198Z,0.40
2023-01-08T06:01:18.049Z,0.58
2023-01-08T06:03:45.901Z,0.39
2023-01-08T06:06:13.591Z,0.39
2023-01-08T06:08:41.157Z,0.32
2023-01-08T06:11:11.253Z,0.19
2023-01-08T06:13:42.470Z,0.33
2023-01-08T06:16:10.645Z,0.16
2023-01-08T06:18:38.224Z,0.02
2023-01-08T06:21:05.861Z,0.15
2023-01-08T06:23:33.560Z,0.16
2023-01-08T06:26:01.999Z,0.24
2023-01-08T06:28:29.506Z,0.20
2023-01-08T06:31:01.704Z,0.36
2023-01-08T06:33:30.295Z,0.34
2023-01-08T06:36:02.493Z,0.43
2023-01-08T06:38:36.929Z,0.47
2023-01-08T06:41:05.903Z,0.42
2023-01-08T06:43:36.345Z,0.42
2023-01-08T06:46:05.621Z,0.35
2023-01-08T06:48:33.273Z,0.38
2023-01-08T06:51:01.725Z,0.43
2023-01-08T06:53:30.113Z,0.46
2023-01-08T06:55:58.865Z,0.51
2023-01-08T06:58:28.010Z,0.64
2023-01-08T07:00:55.263Z,0.69
2023-01-08T07:03:22.874Z,0.76
2023-01-08T07:05:50.992Z,0.80
2023-01-08T07:08:19.139Z,0.94
2023-01-08T07:10:46.509Z,0.86
2023-01-08T07:13:14.668Z,0.93
2023-01-08T07:15:43.108Z,1.00
2023-01-08T07:18:13.296Z,1.12
2023-01-08T07:20:40.983Z,1.15
2023-01-08T07:23:11.247Z,1.31
2023-01-08T07:25:38.548Z,1.21
2023-01-08T07:28:06.756Z,1.26
2023-01-08T07:30:34.113Z,1.13
2023-01-08T07:33:02.284Z,1.20
2023-01-08T07:35:29.788Z,1.21
2023-01-08T07:37:57.378Z,1.22
2023-01-08T07:40:24.731Z,1.30
2023-01-08T07:43:04.010Z,1.55
2023-01-08T07:45:31.663Z,1.50
2023-01-08T07:48:00.293Z,1.69
2023-01-08T07:50:29.585Z,1.78
2023-01-08T07:52:59.247Z,1.81
2023-01-08T07:55:28.394Z,1.77
2023-01-08T07:57:56.387Z,1.63
2023-01-08T08:00:23.689Z,1.77
2023-01-08T08:02:51.318Z,1.91
2023-01-08T08:05:18.647Z,1.87
2023-01-08T08:07:46.137Z,1.73
2023-01-08T08:10:13.509Z,1.77
2023-01-08T08:12:41.032Z,1.77
2023-01-08T08:15:08.953Z,1.82
2023-01-08T08:17:36.466Z,1.77
2023-01-08T08:20:04.020Z,1.90
2023-01-08T08:22:32.029Z,2.00
2023-01-08T08:24:59.303Z,2.06
2023-01-08T08:27:26.859Z,2.12
2023-01-08T08:29:54.096Z,2.24
2023-01-08T08:32:21.808Z,2.30
2023-01-08T08:34:50.859Z,2.50
2023-01-08T08:37:18.486Z,2.63
2023-01-08T08:39:45.767Z,2.93
2023-01-08T08:42:13.372Z,3.01
2023-01-08T08:44:42.743Z,3.08
2023-01-08T08:47:11.206Z,3.23
2023-01-08T08:49:38.748Z,3.23
2023-01-08T08:52:06.637Z,3.34
2023-01-08T08:54:37.189Z,3.54
2023-01-08T08:57:05.067Z,3.76
2023-01-08T08:59:32.465Z,3.93
2023-01-08T09:02:00.419Z,4.03
2023-01-08T09:04:32.662Z,4.36
2023-01-08T09:07:00.930Z,4.59
2023-01-08T09:09:28.780Z,4.92
2023-01-08T09:11:56.865Z,5.24
2023-01-08T09:14:24.474Z,5.41
2023-01-08T09:16:52.337Z,5.78
2023-01-08T09:19:19.977Z,6.03
2023-01-08T09:21:47.903Z,6.04
2023-01-08T09:24:15.280Z,6.09
2023-01-08T09:26:43.563Z,6.20
2023-01-08T09:29:11.256Z,6.33
2023-01-08T09:31:40.052Z,6.57
2023-01-08T09:34:07.469Z,6.67
2023-01-08T09:36:35.295Z,6.50
2023-01-08T09:39:02.660Z,6.65
2023-01-08T09:41:37.647Z,7.10
2023-01-08T09:44:07.530Z,7.62
2023-01-08T09:46:36.958Z,8.01
2023-01-08T09:49:13.049Z,8.46
2023-01-08T09:51:42.243Z,8.51
2023-01-08T09:54:16.144Z,8.59
2023-01-08T09:56:45.256Z,8.69
2023-01-08T09:59:18.934Z,9.17
2023-01-08T10:01:50.433Z,9.27
2023-01-08T10:04:29.551Z,9.14
2023-01-08T10:07:06.382Z,9.23
2023-01-08T10:09:34.089Z,9.27
2023-01-08T10:12:04.363Z,9.19
2023-01-08T10:14:35.207Z,9.04
2023-01-08T10:17:11.529Z,9.04
2023-01-08T10:19:39.296Z,9.10
2023-01-08T10:22:17.301Z,9.23
2023-01-08T10:24:44.806Z,9.34
2023-01-08T10:27:31.769Z,9.83
2023-01-08T10:30:06.537Z,9.60
2023-01-08T10:32:37.486Z,9.66
2023-01-08T10:35:07.014Z,9.84
2023-01-08T10:37:41.267Z,10.22
2023-01-08T10:40:23.398Z,10.58
2023-01-08T10:42:53.538Z,11.07
2023-01-08T10:45:24.919Z,11.27
2023-01-08T10:48:00.385Z,11.57
2023-01-08T10:50:30.488Z,11.77
2023-01-08T10:53:26.351Z,11.60
2023-01-08T10:56:22.478Z,11.74
2023-01-08T10:59:15.262Z,11.51
2023-01-08T11:01:57.800Z,11.03
2023-01-08T11:04:36.583Z,10.99
2023-01-08T11:07:07.417Z,11.09
2023-01-08T11:09:46.198Z,10.96
2023-01-08T11:12:36.803Z,10.89
2023-01-08T11:15:08.246Z,10.50
2023-01-08T11:17:39.123Z,10.30
2023-01-08T11:20:20.617Z,10.12
2023-01-08T11:22:48.612Z,9.84
2023-01-08T11:25:27.831Z,10.10
2023-01-08T11:27:57.587Z,10.36
2023-01-08T11:30:28.459Z,10.72
2023-01-08T11:36:30.622Z,11.87
2023-01-08T11:38:58.223Z,11.98
2023-01-08T11:41:39.179Z,12.29
2023-01-08T11:44:15.490Z,12.77
2023-01-08T11:47:03.169Z,12.95
2023-01-08T11:49:47.244Z,13.12
2023-01-08T11:52:41.993Z,13.25
2023-01-08T11:55:09.723Z,13.35
2023-01-08T11:57:36.899Z,13.43
2023-01-08T12:00:09.155Z,13.72
2023-01-08T12:02:48.415Z,13.64
2023-01-08T12:05:35.109Z,13.61
2023-01-08T12:08:02.302Z,13.25
2023-01-08T12:10:44.672Z,12.99
2023-01-08T12:13:52.486Z,13.22
2023-01-08T12:16:29.195Z,13.65
2023-01-08T12:19:27.911Z,13.84
2023-01-08T12:22:34.306Z,13.78
2023-01-08T12:25:33.077Z,13.48
2023-01-08T12:28:18.419Z,13.33
2023-01-08T12:31:01.545Z,13.38
2023-01-08T12:33:48.310Z,13.00
2023-01-08T12:36:28.905Z,12.92
2023-01-08T12:39:30.729Z,13.04
2023-01-08T12:42:18.786Z,13.05
2023-01-08T12:44:47.827Z,13.12
2023-01-08T12:47:21.519Z,12.91
2023-01-08T12:49:59.688Z,12.28
2023-01-08T12:52:39.296Z,11.68
2023-01-08T12:55:28.348Z,10.91
2023-01-08T12:58:10.716Z,10.22
2023-01-08T13:00:44.675Z,9.78
2023-01-08T13:03:18.592Z,9.31
2023-01-08T13:05:46.201Z,8.87
2023-01-08T13:08:49.379Z,8.69
2023-01-08T13:11:28.772Z,8.44
2023-01-08T13:14:09.379Z,8.27
2023-01-08T13:16:46.386Z,8.09
2023-01-08T13:19:28.737Z,8.09
2023-01-08T13:21:58.861Z,7.95
2023-01-08T13:24:36.584Z,7.85
2023-01-08T13:27:19.288Z,7.76
2023-01-08T13:29:51.395Z,7.60
2023-01-08T13:32:37.446Z,7.53
2023-01-08T13:35:16.186Z,7.44
2023-01-08T13:37:47.386Z,7.15
2023-01-08T13:40:39.750Z,7.15
2023-01-08T13:43:19.484Z,7.03
2023-01-08T13:46:02.147Z,6.84
2023-01-08T13:48:38.034Z,6.80
2023-01-08T13:51:06.118Z,6.77
2023-01-08T13:53:39.529Z,6.74
2023-01-08T13:56:09.046Z,6.74
2023-01-08T13:58:51.762Z,6.60
2023-01-08T14:01:20.497Z,6.53
2023-01-08T14:03:50.264Z,6.59
2023-01-08T14:06:22.920Z,6.53
2023-01-08T14:09:02.738Z,6.45
2023-01-08T14:11:37.499Z,6.45
2023-01-08T14:14:05.587Z,6.42
2023-01-08T14:16:33.894Z,6.35
2023-01-08T14:19:02.165Z,6.21
2023-01-08T14:21:31.481Z,6.08
2023-01-08T14:23:59.328Z,5.98
2023-01-08T14:26:39.022Z,6.08
2023-01-08T14:29:20.189Z,5.93
2023-01-08T14:31:52.825Z,5.82
2023-01-08T14:34:26.190Z,5.63
2023-01-08T14:36:55.461Z,5.55
2023-01-08T14:39:34.179Z,5.50
2023-01-08T14:42:33.336Z,5.31
2023-01-08T14:45:20.531Z,5.23
2023-01-08T14:47:51.733Z,4.98
2023-01-08T14:50:37.927Z,4.93
2023-01-08T14:53:22.047Z,4.87
2023-01-08T14:55:55.428Z,4.64
2023-01-08T14:58:27.077Z,4.52
2023-01-08T15:01:02.856Z,4.33
2023-01-08T15:03:36.979Z,4.22
2023-01-08T15:06:06.000Z,4.00
2023-01-08T15:08:58.543Z,3.81
2023-01-08T15:11:34.009Z,3.62
2023-01-08T15:14:13.640Z,3.51
2023-01-08T15:16:43.650Z,3.42
2023-01-08T15:19:23.088Z,3.34
2023-01-08T15:21:53.629Z,3.21
2023-01-08T15:24:25.267Z,3.14
2023-01-08T15:26:54.208Z,2.99
2023-01-08T15:29:33.492Z,2.98
2023-01-08T15:32:14.146Z,3.01
2023-01-08T15:34:46.248Z,2.85
2023-01-08T15:37:15.518Z,2.71
2023-01-08T15:39:43.378Z,2.73
2023-01-08T15:42:38.671Z,2.73
2023-01-08T15:45:18.258Z,2.55
2023-01-08T15:47:46.060Z,2.32
2023-01-08T15:50:14.526Z,2.06
2023-01-08T15:52:43.990Z,2.10
2023-01-08T15:55:18.176Z,1.99
2023-01-08T15:57:45.995Z,1.82
2023-01-08T16:00:15.594Z,1.79
2023-01-08T16:02:46.959Z,1.70
2023-01-08T16:05:17.788Z,1.62
2023-01-08T16:07:46.774Z,1.58
2023-01-08T16:10:17.000Z,1.55
2023-01-08T16:12:47.619Z,1.73
2023-01-08T16:15:16.065Z,1.80
2023-01-08T16:17:44.462Z,1.80
2023-01-08T16:20:13.574Z,1.78
2023-01-08T16:22:41.666Z,1.74
2023-01-08T16:25:09.552Z,1.80
2023-01-08T16:27:38.560Z,1.77
2023-01-08T16:30:08.131Z,1.76
2023-01-08T16:32:35.880Z,1.65
2023-01-08T16:35:03.342Z,1.59
2023-01-08T16:37:32.019Z,1.59
2023-01-08T16:39:59.242Z,1.52
2023-01-08T16:42:27.085Z,1.43
2023-01-08T16:44:54.322Z,1.36
2023-01-08T16:47:22.039Z,1.36
2023-01-08T16:49:50.622Z,1.30
2023-01-08T16:52:18.748Z,1.35
2023-01-08T16:54:46.633Z,1.20
2023-01-08T16:57:14.563Z,1.24
2023-01-08T16:59:41.970Z,1.24
2023-01-08T17:02:10.678Z,1.12
2023-01-08T17:04:38.242Z,0.89
2023-01-08T17:07:06.049Z,0.77
2023-01-08T17:09:33.590Z,0.74
2023-01-08T17:12:01.470Z,0.63
2023-01-08T17:14:28.812Z,0.55
2023-01-08T17:16:56.591Z,0.51
2023-01-08T17:19:23.884Z,0.40
2023-01-08T17:21:51.957Z,0.42
2023-01-08T17:24:19.392Z,0.36
2023-01-08T17:26:47.086Z,0.32
2023-01-08T17:29:14.263Z,0.32
2023-01-08T17:31:41.844Z,0.24
2023-01-08T17:34:12.906Z,0.32
2023-01-08T17:36:40.631Z,0.10
2023-01-08T17:39:09.374Z,0.03
2023-01-08T17:41:55.758Z,-0.11
2023-01-08T17:44:26.612Z,-0.12
2023-01-08T17:46:54.235Z,-0.21
2023-01-08T17:49:21.518Z,-0.15
2023-01-08T17:51:49.115Z,-0.15
2023-01-08T17:54:17.358Z,-0.07
2023-01-08T17:56:45.044Z,-0.18
2023-01-08T17:59:16.934Z,-0.04
2023-01-08T18:01:45.713Z,-0.20
2023-01-08T18:04:14.779Z,-0.34
2023-01-08T18:06:43.133Z,-0.39
2023-01-08T18:09:12.851Z,-0.41
2023-01-08T18:11:42.144Z,-0.50
2023-01-08T18:14:11.816Z,-0.57
2023-01-08T18:16:40.432Z,-0.59
2023-01-08T18:19:07.660Z,-0.71
2023-01-08T18:21:35.472Z,-0.56
2023-01-08T18:24:02.773Z,-0.51
2023-01-08T18:26:30.408Z,-0.56
2023-01-08T18:28:57.532Z,-0.47
2023-01-08T18:31:25.236Z,-0.61
2023-01-08T18:33:53.171Z,-0.58
2023-01-08T18:36:21.235Z,-0.71
2023-01-08T18:38:49.386Z,-0.72
2023-01-08T18:41:37.909Z,-0.67
2023-01-08T18:44:07.258Z,-0.77
2023-01-08T18:46:35.823Z,-0.79
2023-01-08T18:49:03.925Z,-0.79
2023-01-08T18:51:31.487Z,-0.80
2023-01-08T18:53:59.073Z,-0.83
2023-01-08T18:56:30.370Z,-0.67
2023-01-08T18:58:58.124Z,-0.68
2023-01-08T19:01:26.304Z,-0.65
2023-01-08T19:03:53.626Z,-0.67
2023-01-08T19:06:22.839Z,-0.48
2023-01-08T19:08:50.380Z,-0.62
2023-01-08T19:11:18.703Z,-0.43
2023-01-08T19:13:46.048Z,-0.58
2023-01-08T19:16:15.212Z,-0.38
2023-01-08T19:18:42.721Z,-0.34
2023-01-08T19:21:14.902Z,-0.11
2023-01-08T19:23:42.194Z,-0.23
2023-01-08T19:26:11.594Z,-0.26
2023-01-08T19:28:39.275Z,-0.38
2023-01-08T19:31:08.267Z,-0.53
2023-01-08T19:33:35.659Z,-0.47
2023-01-08T19:36:11.391Z,-0.28
2023-01-08T19:38:40.420Z,-0.30
2023-01-08T19:41:27.546Z,-0.34
2023-01-08T19:43:55.827Z,-0.37
2023-01-08T19:46:23.824Z,-0.31
2023-01-08T19:48:51.255Z,-0.21
2023-01-08T19:51:19.491Z,-0.15
2023-01-08T19:53:46.857Z,-0.18
2023-01-08T19:56:15.185Z,-0.01
2023-01-08T19:58:43.245Z,0.03
2023-01-08T20:01:15.358Z,0.05
2023-01-08T20:03:43.349Z,0.09
2023-01-08T20:06:17.626Z,0.18
2023-01-08T20:08:46.363Z,0.03
2023-01-08T20:11:16.875Z,0.12
2023-01-08T20:13:44.514Z,0.15
2023-01-08T20:16:14.624Z,0.28
2023-01-08T20:18:42.643Z,0.21
2023-01-08T20:21:16.699Z,0.39
2023-01-08T20:23:45.427Z,0.39
2023-01-08T20:26:15.835Z,0.48
2023-01-08T20:28:44.854Z,0.52
2023-01-08T20:31:17.998Z,0.67
2023-01-08T20:33:45.710Z,0.57
2023-01-08T20:36:16.963Z,0.70
2023-01-08T20:38:45.909Z,0.69
2023-01-08T20:41:13.680Z,0.63
2023-01-08T20:43:41.191Z,0.60
2023-01-08T20:46:12.022Z,0.87
2023-01-08T20:48:47.005Z,0.75
2023-01-08T20:51:16.055Z,0.81
2023-01-08T20:53:43.564Z,0.74
2023-01-08T20:56:13.897Z,0.86
2023-01-08T20:58:44.224Z,0.96
2023-01-08T21:01:17.617Z,1.02
2023-01-08T21:03:46.351Z,1.09
2023-01-08T21:06:16.833Z,1.05
2023-01-08T21:08:45.695Z,1.06
2023-01-08T21:11:15.001Z,0.95
2023-01-08T21:13:43.147Z,0.76
2023-01-08T21:16:17.491Z,0.75
2023-01-08T21:18:47.710Z,0.58
2023-01-08T21:21:21.521Z,0.52
2023-01-08T21:23:49.270Z,0.29
2023-01-08T21:26:18.084Z,0.20
2023-01-08T21:28:45.770Z,0.32
2023-01-08T21:31:16.760Z,0.24
2023-01-08T21:33:47.736Z,0.27
2023-01-08T21:36:19.502Z,0.31
2023-01-08T21:38:49.564Z,0.20
2023-01-08T21:41:41.389Z,0.31
2023-01-08T21:44:36.856Z,0.38
2023-01-08T21:47:07.193Z,0.20
2023-01-08T21:49:36.280Z,0.13
2023-01-08T21:52:23.350Z,-0.01
2023-01-08T21:54:51.521Z,0.03
2023-01-08T21:57:19.463Z,-0.06
2023-01-08T21:59:49.761Z,0.13
2023-01-08T22:02:19.823Z,0.05
2023-01-08T22:04:47.427Z,-0.17
2023-01-08T22:07:16.929Z,-0.22
2023-01-08T22:09:44.246Z,-0.19
2023-01-08T22:12:14.237Z,-0.14
2023-01-08T22:14:41.441Z,-0.12
2023-01-08T22:17:09.144Z,-0.14
2023-01-08T22:19:39.700Z,-0.02
2023-01-08T22:22:10.407Z,-0.12
2023-01-08T22:24:39.578Z,-0.25
2023-01-08T22:27:08.599Z,-0.21
2023-01-08T22:29:37.406Z,-0.31
2023-01-08T22:32:05.398Z,-0.31
2023-01-08T22:34:34.438Z,-0.27
2023-01-08T22:37:02.782Z,-0.26
2023-01-08T22:39:30.465Z,-0.31
2023-01-08T22:41:58.113Z,-0.42
2023-01-08T22:44:25.364Z,-0.52
2023-01-08T22:46:54.384Z,-0.51
2023-01-08T22:49:21.689Z,-0.49
2023-01-08T22:51:49.370Z,-0.44
2023-01-08T22:54:18.245Z,-0.42
2023-01-08T22:56:45.794Z,-0.38
2023-01-08T22:59:13.096Z,-0.46
2023-01-08T23:01:40.672Z,-0.61
2023-01-08T23:04:08.101Z,-0.66
2023-01-08T23:06:36.051Z,-0.57
2023-01-08T23:09:03.243Z,-0.63
2023-01-08T23:11:30.934Z,-0.66
2023-01-08T23:14:00.321Z,-0.53
2023-01-08T23:16:30.553Z,-0.61
2023-01-08T23:18:58.151Z,-0.69
2023-01-08T23:21:27.214Z,-0.65
2023-01-08T23:23:54.691Z,-0.93
2023-01-08T23:26:28.449Z,-0.93
2023-01-08T23:28:57.035Z,-1.07
2023-01-08T23:31:28.155Z,-0.98
2023-01-08T23:33:55.765Z,-1.09
2023-01-08T23:36:23.992Z,-1.07
2023-01-08T23:38:54.068Z,-1.15
2023-01-08T23:41:26.267Z,-1.23
2023-01-08T23:43:54.825Z,-1.35
2023-01-08T23:46:22.374Z,-1.38
2023-01-08T23:48:51.157Z,-1.36
2023-01-08T23:51:18.796Z,-1.47
2023-01-08T23:53:46.005Z,-1.42
2023-01-08T23:56:13.702Z,-1.35
2023-01-08T23:58:41.063Z,-1.33
